createdAt,value
2023-02-17T00:01:22.636Z,100.00
2023-02-17T00:03:51.519Z,100.00
2023-02-17T00:06:21.160Z,100.00
2023-02-17T00:08:48.254Z,100.00
2023-02-17T00:11:15.118Z,100.00
2023-02-17T00:13:42.420Z,100.00
2023-02-17T00:16:11.289Z,100.00
2023-02-17T00:18:37.782Z,100.00
2023-02-17T00:21:12.733Z,100.00
2023-02-17T00:23:39.145Z,100.00
2023-02-17T00:26:06.989Z,100.00
2023-02-17T00:28:34.364Z,100.00
2023-02-17T00:31:16.114Z,100.00
2023-02-17T00:33:42.794Z,100.00
2023-02-17T00:36:12.858Z,100.00
2023-02-17T00:38:39.605Z,100.00
2023-02-17T00:41:06.077Z,100.00
2023-02-17T00:43:32.550Z,100.00
2023-02-17T00:45:59.064Z,100.00
2023-02-17T00:48:25.814Z,100.00
2023-02-17T00:50:52.298Z,100.00
2023-02-17T00:53:18.971Z,100.00
2023-02-17T00:55:45.516Z,100.00
2023-02-17T00:58:12.198Z,100.00
2023-02-17T01:00:38.711Z,100.00
2023-02-17T01:03:05.147Z,100.00
2023-02-17T01:05:31.880Z,100.00
2023-02-17T01:07:58.393Z,100.00
2023-02-17T01:10:24.851Z,100.00
2023-02-17T01:12:51.672Z,100.00
2023-02-17T01:15:21.296Z,100.00
2023-02-17T01:17:49.612Z,100.00
2023-02-17T01:20:16.253Z,100.00
2023-02-17T01:22:42.697Z,100.00
2023-02-17T01:25:09.143Z,100.00
2023-02-17T01:27:35.978Z,100.00
2023-02-17T01:30:02.581Z,100.00
2023-02-17T01:32:29.383Z,100.00
2023-02-17T01:34:55.980Z,100.00
2023-02-17T01:37:22.555Z,100.00
2023-02-17T01:39:49.401Z,100.00
2023-02-17T01:42:17.626Z,100.00
2023-02-17T01:45:18.356Z,100.00
2023-02-17T01:47:56.374Z,100.00
2023-02-17T01:50:28.219Z,100.00
2023-02-17T01:52:58.076Z,100.00
2023-02-17T01:55:25.953Z,100.00
2023-02-17T01:57:57.509Z,100.00
2023-02-17T02:00:27.801Z,100.00
2023-02-17T02:02:54.870Z,100.00
2023-02-17T02:05:22.039Z,100.00
2023-02-17T02:07:50.350Z,100.00
2023-02-17T02:10:19.619Z,100.00
2023-02-17T02:12:46.412Z,100.00
2023-02-17T02:15:16.236Z,100.00
2023-02-17T02:17:52.456Z,100.00
2023-02-17T02:20:26.044Z,100.00
2023-02-17T02:23:07.738Z,100.00
2023-02-17T02:25:40.240Z,100.00
2023-02-17T02:28:28.579Z,100.00
2023-02-17T02:31:29.212Z,100.00
2023-02-17T02:34:07.801Z,100.00
2023-02-17T02:36:58.564Z,100.00
2023-02-17T02:39:32.586Z,100.00
2023-02-17T02:42:04.865Z,100.00
2023-02-17T02:44:31.520Z,100.00
2023-02-17T02:47:26.107Z,100.00
2023-02-17T02:49:53.089Z,100.00
2023-02-17T02:52:29.671Z,100.00
2023-02-17T02:55:06.286Z,100.00
2023-02-17T02:58:02.265Z,100.00
2023-02-17T03:00:53.935Z,100.00
2023-02-17T03:04:07.300Z,100.00
2023-02-17T03:06:44.803Z,100.00
2023-02-17T03:09:14.716Z,100.00
2023-02-17T03:11:41.999Z,100.00
2023-02-17T03:14:14.934Z,100.00
2023-02-17T03:16:42.753Z,100.00
2023-02-17T03:19:10.628Z,100.00
2023-02-17T03:21:44.891Z,100.00
2023-02-17T03:24:11.349Z,100.00
2023-02-17T03:26:37.843Z,100.00
2023-02-17T03:29:04.331Z,100.00
2023-02-17T03:31:31.318Z,100.00
2023-02-17T03:33:58.631Z,100.00
2023-02-17T03:36:25.096Z,100.00
2023-02-17T03:38:51.801Z,100.00
2023-02-17T03:41:18.346Z,100.00
2023-02-17T03:43:44.775Z,100.00
2023-02-17T03:46:12.727Z,100.00
2023-02-17T03:48:40.078Z,100.00
2023-02-17T03:51:13.220Z,100.00
2023-02-17T03:53:40.030Z,100.00
2023-02-17T03:56:06.926Z,100.00
2023-02-17T03:58:34.252Z,100.00
2023-02-17T04:01:01.092Z,100.00
2023-02-17T04:03:27.609Z,100.00
2023-02-17T04:05:54.569Z,100.00
2023-02-17T04:08:22.102Z,100.00
2023-02-17T04:10:56.694Z,100.00
2023-02-17T04:13:24.002Z,100.00
2023-02-17T04:15:51.134Z,100.00
2023-02-17T04:18:18.674Z,100.00
2023-02-17T04:20:47.350Z,100.00
2023-02-17T04:23:14.523Z,100.00
2023-02-17T04:25:41.348Z,100.00
2023-02-17T04:28:10.005Z,100.00
2023-02-17T04:30:36.467Z,100.00
2023-02-17T04:33:03.841Z,100.00
2023-02-17T04:35:30.525Z,100.00
2023-02-17T04:37:56.991Z,100.00
2023-02-17T04:40:23.597Z,100.00
2023-02-17T04:42:50.164Z,100.00
2023-02-17T04:45:16.923Z,100.00
2023-02-17T04:47:43.345Z,100.00
2023-02-17T04:50:10.660Z,100.00
2023-02-17T04:52:37.086Z,100.00
2023-02-17T04:55:04.927Z,100.00
2023-02-17T04:57:31.406Z,100.00
2023-02-17T04:59:57.817Z,100.00
2023-02-17T05:02:26.845Z,100.00
2023-02-17T05:04:54.011Z,100.00
2023-02-17T05:07:21.110Z,100.00
2023-02-17T05:09:47.838Z,100.00
2023-02-17T05:12:14.656Z,100.00
2023-02-17T05:14:41.051Z,100.00
2023-02-17T05:17:07.489Z,100.00
2023-02-17T05:19:34.045Z,100.00
2023-02-17T05:22:00.454Z,100.00
2023-02-17T05:24:27.218Z,100.00
2023-02-17T05:26:53.872Z,100.00
2023-02-17T05:29:20.438Z,100.00
2023-02-17T05:31:47.208Z,100.00
2023-02-17T05:34:13.734Z,100.00
2023-02-17T05:36:40.219Z,100.00
2023-02-17T05:39:06.718Z,100.00
2023-02-17T05:41:33.176Z,100.00
2023-02-17T05:43:59.572Z,100.00
2023-02-17T05:46:26.172Z,100.00
2023-02-17T05:48:52.701Z,100.00
2023-02-17T05:51:19.490Z,100.00
2023-02-17T05:53:46.109Z,100.00
2023-02-17T05:56:12.480Z,100.00
2023-02-17T05:58:38.930Z,100.00
2023-02-17T06:01:09.774Z,100.00
2023-02-17T06:03:36.217Z,100.00
2023-02-17T06:06:02.850Z,100.00
2023-02-17T06:08:29.257Z,100.00
2023-02-17T06:10:56.005Z,100.00
2023-02-17T06:13:22.479Z,100.00
2023-02-17T06:15:49.411Z,100.00
2023-02-17T06:18:16.131Z,100.00
2023-02-17T06:20:42.587Z,100.00
2023-02-17T06:23:08.971Z,100.00
2023-02-17T06:25:35.823Z,100.00
2023-02-17T06:28:02.303Z,100.00
2023-02-17T06:30:28.843Z,100.00
2023-02-17T06:32:55.329Z,100.00
2023-02-17T06:35:22.020Z,100.00
2023-02-17T06:37:48.628Z,100.00
2023-02-17T06:40:15.670Z,100.00
2023-02-17T06:42:42.115Z,100.00
2023-02-17T06:45:09.039Z,99.49
2023-02-17T06:47:35.683Z,98.99
2023-02-17T06:50:04.839Z,98.73
2023-02-17T06:52:32.029Z,98.50
2023-02-17T06:54:58.668Z,98.18
2023-02-17T06:57:25.101Z,97.16
2023-02-17T06:59:51.709Z,98.38
2023-02-17T07:02:18.300Z,97.75
2023-02-17T07:04:44.823Z,98.37
2023-02-17T07:07:11.869Z,97.59
2023-02-17T07:09:39.147Z,97.38
2023-02-17T07:12:06.307Z,97.36
2023-02-17T07:14:34.283Z,97.79
2023-02-17T07:17:01.899Z,97.23
2023-02-17T07:19:28.309Z,97.86
2023-02-17T07:21:54.743Z,98.25
2023-02-17T07:24:21.261Z,98.41
2023-02-17T07:26:48.624Z,98.93
2023-02-17T07:29:15.008Z,98.47
2023-02-17T07:31:41.559Z,98.29
2023-02-17T07:34:08.049Z,98.12
2023-02-17T07:36:34.721Z,97.38
2023-02-17T07:39:04.396Z,98.04
2023-02-17T07:41:33.495Z,98.71
2023-02-17T07:44:07.740Z,99.18
2023-02-17T07:46:34.240Z,99.71
2023-02-17T07:49:00.669Z,99.70
2023-02-17T07:51:27.991Z,99.68
2023-02-17T07:53:55.061Z,99.03
2023-02-17T07:56:22.322Z,99.41
2023-02-17T07:58:49.004Z,99.49
2023-02-17T08:01:18.356Z,99.17
2023-02-17T08:03:46.088Z,99.58
2023-02-17T08:06:18.583Z,99.17
2023-02-17T08:09:04.188Z,99.11
2023-02-17T08:11:50.108Z,99.09
2023-02-17T08:14:16.822Z,99.98
2023-02-17T08:16:43.485Z,100.00
2023-02-17T08:19:10.022Z,100.00
2023-02-17T08:21:36.524Z,100.00
2023-02-17T08:24:03.172Z,100.00
2023-02-17T08:26:29.736Z,100.00
2023-02-17T08:28:56.395Z,100.00
2023-02-17T08:31:26.307Z,100.00
2023-02-17T08:33:53.394Z,100.00
2023-02-17T08:36:22.168Z,100.00
2023-02-17T08:38:51.268Z,100.00
2023-02-17T08:41:17.661Z,100.00
2023-02-17T08:43:44.223Z,100.00
2023-02-17T08:46:11.951Z,100.00
2023-02-17T08:48:40.332Z,100.00
2023-02-17T08:51:07.309Z,100.00
2023-02-17T08:53:34.592Z,100.00
2023-02-17T08:56:01.148Z,100.00
2023-02-17T08:58:27.575Z,100.00
2023-02-17T09:00:54.145Z,100.00
2023-02-17T09:03:21.163Z,100.00
2023-02-17T09:05:49.944Z,100.00
2023-02-17T09:08:16.912Z,100.00
2023-02-17T09:10:43.435Z,100.00
2023-02-17T09:13:09.935Z,100.00
2023-02-17T09:15:36.409Z,100.00
2023-02-17T09:18:02.909Z,100.00
2023-02-17T09:20:29.546Z,100.00
2023-02-17T09:22:56.271Z,100.00
2023-02-17T09:25:22.942Z,100.00
2023-02-17T09:27:49.911Z,100.00
2023-02-17T09:30:16.765Z,100.00
2023-02-17T09:32:44.175Z,100.00
2023-02-17T09:35:15.620Z,100.00
2023-02-17T09:37:42.299Z,100.00
2023-02-17T09:40:15.324Z,100.00
2023-02-17T09:42:41.840Z,100.00
2023-02-17T09:45:19.034Z,100.00
2023-02-17T09:47:54.950Z,100.00
2023-02-17T09:50:44.002Z,100.00
2023-02-17T09:53:34.437Z,100.00
2023-02-17T09:56:05.658Z,100.00
2023-02-17T09:58:50.375Z,100.00
2023-02-17T10:01:23.945Z,100.00
2023-02-17T10:03:56.173Z,100.00
2023-02-17T10:06:28.491Z,100.00
2023-02-17T10:09:32.036Z,100.00
2023-02-17T10:12:21.400Z,100.00
2023-02-17T10:14:56.741Z,100.00
2023-02-17T10:17:37.709Z,100.00
2023-02-17T10:20:12.417Z,100.00
2023-02-17T10:22:42.468Z,100.00
2023-02-17T10:25:46.489Z,100.00
2023-02-17T10:28:38.090Z,100.00
2023-02-17T10:31:15.176Z,100.00
2023-02-17T10:33:53.028Z,100.00
2023-02-17T10:36:28.882Z,100.00
2023-02-17T10:39:11.967Z,100.00
2023-02-17T10:41:40.172Z,100.00
2023-02-17T10:44:19.879Z,100.00
2023-02-17T10:46:48.857Z,100.00
2023-02-17T10:49:32.297Z,100.00
2023-02-17T10:52:10.604Z,100.00
2023-02-17T10:54:49.118Z,100.00
2023-02-17T10:57:19.537Z,100.00
2023-02-17T10:59:48.998Z,100.00
2023-02-17T11:02:37.875Z,100.00
2023-02-17T11:05:04.831Z,100.00
2023-02-17T11:07:45.112Z,99.81
2023-02-17T11:10:22.996Z,99.15
2023-02-17T11:12:55.830Z,98.00
2023-02-17T11:15:27.073Z,97.39
2023-02-17T11:17:54.478Z,97.15
2023-02-17T11:20:21.433Z,97.15
2023-02-17T11:23:02.763Z,95.58
2023-02-17T11:25:34.556Z,94.62
2023-02-17T11:28:03.584Z,94.05
2023-02-17T11:30:32.536Z,92.82
2023-02-17T11:32:59.022Z,93.02
2023-02-17T11:35:46.088Z,92.53
2023-02-17T11:38:18.945Z,92.16
2023-02-17T11:40:59.601Z,91.79
2023-02-17T11:43:30.570Z,91.50
2023-02-17T11:46:38.714Z,91.73
2023-02-17T11:49:33.885Z,91.18
2023-02-17T11:52:19.077Z,90.90
2023-02-17T11:55:00.834Z,89.97
2023-02-17T11:58:01.981Z,90.52
2023-02-17T12:00:54.374Z,90.96
2023-02-17T12:03:48.222Z,90.01
2023-02-17T12:06:24.093Z,89.67
2023-02-17T12:09:20.475Z,89.41
2023-02-17T12:12:01.513Z,89.37
2023-02-17T12:15:03.227Z,88.68
2023-02-17T12:17:42.242Z,89.12
2023-02-17T12:20:31.666Z,88.67
2023-02-17T12:23:09.389Z,89.45
2023-02-17T12:25:49.770Z,89.23
2023-02-17T12:28:54.090Z,88.97
2023-02-17T12:31:41.995Z,89.49
2023-02-17T12:34:43.832Z,89.86
2023-02-17T12:37:21.447Z,89.44
2023-02-17T12:40:03.355Z,90.43
2023-02-17T12:42:41.191Z,89.63
2023-02-17T12:45:39.433Z,89.74
2023-02-17T12:48:14.831Z,90.04
2023-02-17T12:50:56.558Z,90.66
2023-02-17T12:53:42.081Z,90.38
2023-02-17T12:56:33.616Z,90.35
2023-02-17T12:59:12.664Z,90.58
2023-02-17T13:01:48.947Z,90.70
2023-02-17T13:04:18.313Z,90.99
2023-02-17T13:06:53.140Z,91.13
2023-02-17T13:09:34.498Z,91.62
2023-02-17T13:12:27.305Z,92.22
2023-02-17T13:14:55.224Z,92.96
2023-02-17T13:17:37.728Z,95.19
2023-02-17T13:20:07.384Z,97.44
2023-02-17T13:22:34.605Z,99.24
2023-02-17T13:25:02.603Z,100.00
2023-02-17T13:27:29.042Z,100.00
2023-02-17T13:30:21.729Z,100.00
2023-02-17T13:33:00.284Z,100.00
2023-02-17T13:35:27.883Z,100.00
2023-02-17T13:37:55.012Z,100.00
2023-02-17T13:40:24.604Z,100.00
2023-02-17T13:42:54.018Z,100.00
2023-02-17T13:45:27.431Z,100.00
2023-02-17T13:47:59.258Z,100.00
2023-02-17T13:50:35.993Z,100.00
2023-02-17T13:53:21.016Z,100.00
2023-02-17T13:55:47.796Z,100.00
2023-02-17T13:58:14.292Z,100.00
2023-02-17T14:00:43.378Z,100.00
2023-02-17T14:03:41.565Z,100.00
2023-02-17T14:06:13.827Z,100.00
2023-02-17T14:08:42.921Z,100.00
2023-02-17T14:11:18.207Z,100.00
2023-02-17T14:13:47.703Z,100.00
2023-02-17T14:16:31.376Z,100.00
2023-02-17T14:19:18.216Z,100.00
2023-02-17T14:22:02.518Z,100.00
2023-02-17T14:24:37.329Z,100.00
2023-02-17T14:27:09.164Z,100.00
2023-02-17T14:29:44.858Z,100.00
2023-02-17T14:32:50.076Z,100.00
2023-02-17T14:35:23.469Z,100.00
2023-02-17T14:37:52.954Z,100.00
2023-02-17T14:40:24.777Z,100.00
2023-02-17T14:42:51.878Z,100.00
2023-02-17T14:45:19.442Z,100.00
2023-02-17T14:47:46.434Z,100.00
2023-02-17T14:50:13.456Z,100.00
2023-02-17T14:52:49.290Z,100.00
2023-02-17T14:55:38.901Z,100.00
2023-02-17T14:58:05.857Z,100.00
2023-02-17T15:00:32.251Z,100.00
2023-02-17T15:03:00.450Z,100.00
2023-02-17T15:05:28.144Z,100.00
2023-02-17T15:07:54.588Z,100.00
2023-02-17T15:10:26.737Z,100.00
2023-02-17T15:12:54.317Z,100.00
2023-02-17T15:15:21.923Z,100.00
2023-02-17T15:17:48.572Z,100.00
2023-02-17T15:20:16.518Z,100.00
2023-02-17T15:22:44.304Z,100.00
2023-02-17T15:25:17.346Z,100.00
2023-02-17T15:27:44.089Z,100.00
2023-02-17T15:30:13.736Z,100.00
2023-02-17T15:32:41.017Z,100.00
2023-02-17T15:35:17.849Z,100.00
2023-02-17T15:37:44.457Z,100.00
2023-02-17T15:40:19.190Z,100.00
2023-02-17T15:42:50.199Z,100.00
2023-02-17T15:45:19.152Z,100.00
2023-02-17T15:47:50.527Z,100.00
2023-02-17T15:50:23.027Z,100.00
2023-02-17T15:52:50.618Z,100.00
2023-02-17T15:55:21.401Z,100.00
2023-02-17T15:57:50.954Z,100.00
2023-02-17T16:00:21.649Z,100.00
2023-02-17T16:02:48.120Z,100.00
2023-02-17T16:05:16.647Z,100.00
2023-02-17T16:07:43.652Z,100.00
2023-02-17T16:10:13.667Z,100.00
2023-02-17T16:12:40.228Z,100.00
2023-02-17T16:15:13.070Z,100.00
2023-02-17T16:17:39.665Z,100.00
2023-02-17T16:20:13.415Z,100.00
2023-02-17T16:22:39.930Z,100.00
2023-02-17T16:25:06.608Z,100.00
2023-02-17T16:27:33.159Z,100.00
2023-02-17T16:30:00.926Z,100.00
2023-02-17T16:32:27.519Z,100.00
2023-02-17T16:34:54.165Z,100.00
2023-02-17T16:37:20.631Z,100.00
2023-02-17T16:39:47.068Z,100.00
2023-02-17T16:42:15.448Z,100.00
2023-02-17T16:44:42.274Z,100.00
2023-02-17T16:47:18.501Z,100.00
2023-02-17T16:49:47.479Z,100.00
2023-02-17T16:52:24.300Z,100.00
2023-02-17T16:54:51.291Z,100.00
2023-02-17T16:57:19.574Z,100.00
2023-02-17T16:59:47.069Z,100.00
2023-02-17T17:02:13.883Z,100.00
2023-02-17T17:04:40.317Z,100.00
2023-02-17T17:07:07.824Z,100.00
2023-02-17T17:09:34.778Z,100.00
2023-02-17T17:12:01.348Z,100.00
2023-02-17T17:14:27.725Z,100.00
2023-02-17T17:17:01.499Z,100.00
2023-02-17T17:19:28.000Z,100.00
2023-02-17T17:21:54.499Z,100.00
2023-02-17T17:24:21.781Z,100.00
2023-02-17T17:26:50.364Z,100.00
2023-02-17T17:29:18.802Z,100.00
2023-02-17T17:31:45.568Z,100.00
2023-02-17T17:34:12.198Z,100.00
2023-02-17T17:36:43.948Z,100.00
2023-02-17T17:39:22.741Z,100.00
2023-02-17T17:41:50.581Z,100.00
2023-02-17T17:44:17.233Z,100.00
2023-02-17T17:46:44.132Z,100.00
2023-02-17T17:49:13.575Z,100.00
2023-02-17T17:51:40.844Z,100.00
2023-02-17T17:54:07.875Z,100.00
2023-02-17T17:56:37.625Z,100.00
2023-02-17T17:59:05.192Z,100.00
2023-02-17T18:01:32.022Z,99.46
2023-02-17T18:04:00.134Z,98.15
2023-02-17T18:06:43.027Z,95.24
2023-02-17T18:09:30.643Z,94.02
2023-02-17T18:12:01.348Z,92.37
2023-02-17T18:14:28.506Z,90.66
2023-02-17T18:16:54.885Z,87.82
2023-02-17T18:19:22.443Z,86.89
2023-02-17T18:21:49.518Z,86.27
2023-02-17T18:24:15.929Z,85.47
2023-02-17T18:26:42.442Z,85.22
2023-02-17T18:29:08.920Z,85.31
2023-02-17T18:31:36.217Z,84.91
2023-02-17T18:34:03.817Z,85.35
2023-02-17T18:36:30.772Z,85.62
2023-02-17T18:38:57.189Z,85.75
2023-02-17T18:41:32.124Z,85.45
2023-02-17T18:43:59.992Z,85.83
2023-02-17T18:46:29.051Z,85.40
2023-02-17T18:48:56.302Z,84.24
2023-02-17T18:51:24.311Z,81.83
2023-02-17T18:53:51.420Z,80.38
2023-02-17T18:56:20.997Z,79.42
2023-02-17T18:58:49.658Z,77.27
2023-02-17T19:01:20.635Z,75.54
2023-02-17T19:03:47.276Z,75.43
2023-02-17T19:06:17.540Z,75.29
2023-02-17T19:08:44.758Z,75.25
2023-02-17T19:11:11.758Z,76.30
2023-02-17T19:13:38.516Z,76.35
2023-02-17T19:16:16.698Z,76.05
2023-02-17T19:18:44.123Z,77.07
2023-02-17T19:21:10.955Z,77.99
2023-02-17T19:23:38.105Z,78.45
2023-02-17T19:26:07.067Z,78.91
2023-02-17T19:28:34.845Z,79.38
2023-02-17T19:31:04.079Z,79.81
2023-02-17T19:33:30.547Z,80.33
2023-02-17T19:35:57.128Z,80.74
2023-02-17T19:38:23.707Z,80.69
2023-02-17T19:40:50.540Z,81.10
2023-02-17T19:43:17.095Z,81.68
2023-02-17T19:45:46.405Z,82.19
2023-02-17T19:48:12.877Z,81.28
2023-02-17T19:50:39.268Z,80.23
2023-02-17T19:53:05.685Z,76.11
2023-02-17T19:55:32.108Z,74.98
2023-02-17T19:57:58.624Z,74.48
2023-02-17T20:00:25.091Z,74.49
2023-02-17T20:02:51.740Z,74.29
2023-02-17T20:05:18.306Z,74.32
2023-02-17T20:07:45.689Z,74.47
2023-02-17T20:10:12.510Z,75.76
2023-02-17T20:12:38.964Z,76.29
2023-02-17T20:15:06.440Z,76.14
2023-02-17T20:17:32.960Z,76.36
2023-02-17T20:19:59.606Z,76.55
2023-02-17T20:22:26.242Z,76.25
2023-02-17T20:24:52.969Z,75.43
2023-02-17T20:27:19.455Z,74.43
2023-02-17T20:29:45.887Z,74.44
2023-02-17T20:32:12.462Z,74.36
2023-02-17T20:34:39.488Z,74.63
2023-02-17T20:37:06.740Z,74.65
2023-02-17T20:39:35.364Z,73.97
2023-02-17T20:42:02.873Z,74.63
2023-02-17T20:44:29.318Z,73.84
2023-02-17T20:46:56.963Z,73.62
2023-02-17T20:49:23.839Z,74.10
2023-02-17T20:51:51.159Z,73.79
2023-02-17T20:54:18.058Z,74.05
2023-02-17T20:56:46.518Z,74.24
2023-02-17T20:59:13.727Z,74.22
2023-02-17T21:01:41.611Z,74.64
2023-02-17T21:04:08.923Z,74.82
2023-02-17T21:06:41.238Z,75.18
2023-02-17T21:09:13.534Z,75.12
2023-02-17T21:11:40.698Z,75.10
2023-02-17T21:14:07.518Z,74.82
2023-02-17T21:16:34.068Z,74.63
2023-02-17T21:19:00.867Z,75.00
2023-02-17T21:21:28.151Z,74.65
2023-02-17T21:23:55.912Z,74.30
2023-02-17T21:26:23.004Z,74.23
2023-02-17T21:28:49.812Z,74.73
2023-02-17T21:31:17.233Z,74.95
2023-02-17T21:33:44.180Z,74.92
2023-02-17T21:36:12.917Z,74.80
2023-02-17T21:38:40.025Z,74.34
2023-02-17T21:41:11.445Z,74.18
2023-02-17T21:43:57.982Z,74.58
2023-02-17T21:46:25.209Z,74.13
2023-02-17T21:48:53.307Z,74.42
2023-02-17T21:51:20.551Z,74.29
2023-02-17T21:53:47.315Z,73.87
2023-02-17T21:56:14.680Z,73.20
2023-02-17T21:58:45.888Z,73.83
2023-02-17T22:01:12.721Z,73.70
2023-02-17T22:03:39.316Z,73.54
2023-02-17T22:06:14.143Z,73.51
2023-02-17T22:08:40.609Z,73.29
2023-02-17T22:11:13.613Z,73.21
2023-02-17T22:13:40.018Z,73.09
2023-02-17T22:16:07.362Z,72.75
2023-02-17T22:18:33.995Z,73.00
2023-02-17T22:21:00.374Z,72.85
2023-02-17T22:23:27.359Z,72.64
2023-02-17T22:25:53.854Z,72.99
2023-02-17T22:28:22.004Z,73.01
2023-02-17T22:30:52.972Z,72.83
2023-02-17T22:33:19.482Z,72.86
2023-02-17T22:35:45.903Z,72.49
2023-02-17T22:38:12.481Z,72.52
2023-02-17T22:40:40.829Z,72.77
2023-02-17T22:43:07.303Z,72.33
2023-02-17T22:45:33.787Z,73.10
2023-02-17T22:48:00.227Z,72.69
2023-02-17T22:50:26.641Z,72.96
2023-02-17T22:52:53.193Z,73.07
2023-02-17T22:55:19.668Z,72.78
2023-02-17T22:57:47.278Z,72.87
2023-02-17T23:00:14.544Z,72.77
2023-02-17T23:02:40.916Z,72.46
2023-02-17T23:05:07.504Z,72.62
2023-02-17T23:07:33.908Z,73.04
2023-02-17T23:10:03.644Z,73.13
2023-02-17T23:12:30.316Z,72.83
2023-02-17T23:14:56.753Z,72.44
2023-02-17T23:17:24.822Z,72.48
2023-02-17T23:19:51.302Z,72.48
2023-02-17T23:22:18.996Z,72.31
2023-02-17T23:24:47.494Z,72.58
2023-02-17T23:27:14.577Z,72.20
2023-02-17T23:29:41.837Z,72.04
2023-02-17T23:32:08.485Z,71.53
2023-02-17T23:34:34.929Z,72.00
2023-02-17T23:37:01.718Z,71.27
2023-02-17T23:39:28.118Z,71.89
2023-02-17T23:41:54.567Z,72.22
2023-02-17T23:44:21.057Z,72.14
2023-02-17T23:46:47.605Z,72.98
2023-02-17T23:49:16.149Z,73.04
2023-02-17T23:51:42.937Z,73.26
2023-02-17T23:54:09.442Z,73.19
2023-02-17T23:56:37.011Z,73.32
2023-02-17T23:59:03.769Z,73.19
